Time;durP1;ratioP1;P1;durP2;ratioP2;P2;SDS_P1;SDS_P2;PMS_P1;PMS_P2;Temp;Humidity;BMP_temperature;BMP_pressure;BME280_temperature;BME280_humidity;BME280_pressure;Samples;Min_cycle;Max_cycle;Signal;HPM_P1;HPM_P2
2023/12/22 00:01:16;;;;;;;11.37;3.87;;;5.60;90.70;;;;;;5072470;28;20195;-84
2023/12/22 00:03:45;;;;;;;2.40;2.20;;;5.60;90.70;;;;;;5074345;28;20206;-85
2023/12/22 00:06:15;;;;;;;6.67;3.67;;;5.60;90.70;;;;;;5074492;28;20190;-85
2023/12/22 00:08:44;;;;;;;5.57;4.00;;;5.70;90.70;;;;;;5074182;28;20248;-84
2023/12/22 00:11:13;;;;;;;5.60;3.90;;;5.60;90.70;;;;;;5077447;28;20215;-84
2023/12/22 00:13:41;;;;;;;2.93;2.67;;;5.70;91.10;;;;;;5073118;28;20194;-83
2023/12/22 00:16:11;;;;;;;6.17;3.43;;;5.70;90.70;;;;;;5074598;28;20237;-84
2023/12/22 00:18:40;;;;;;;3.93;3.43;;;5.70;90.70;;;;;;5073132;28;20202;-86
2023/12/22 00:21:11;;;;;;;8.17;4.23;;;5.60;90.70;;;;;;5072738;28;20256;-82
2023/12/22 00:23:41;;;;;;;3.23;2.37;;;5.70;90.70;;;;;;5073190;28;20204;-84
2023/12/22 00:26:09;;;;;;;4.37;3.40;;;5.60;90.70;;;;;;5068923;28;20251;-84
2023/12/22 00:28:38;;;;;;;4.90;4.03;;;5.60;90.70;;;;;;5066811;28;20201;-84
2023/12/22 00:31:08;;;;;;;5.30;3.17;;;5.60;90.90;;;;;;5073721;28;20214;-84
2023/12/22 00:33:37;;;;;;;9.50;6.07;;;5.50;90.90;;;;;;5069791;28;20194;-85
2023/12/22 00:36:06;;;;;;;10.27;4.67;;;5.50;90.80;;;;;;5071219;28;20203;-85
2023/12/22 00:38:34;;;;;;;4.77;4.37;;;5.50;90.90;;;;;;5068726;28;20643;-84
2023/12/22 00:41:04;;;;;;;4.37;3.57;;;5.40;91.00;;;;;;5073945;28;20198;-84
2023/12/22 00:43:33;;;;;;;7.67;3.67;;;5.40;91.00;;;;;;5073185;28;20194;-84
2023/12/22 00:46:02;;;;;;;3.80;3.47;;;5.40;91.10;;;;;;5079266;28;20282;-85
2023/12/22 00:48:31;;;;;;;7.80;4.33;;;5.40;91.20;;;;;;5077234;28;20234;-83
2023/12/22 00:51:00;;;;;;;3.77;3.47;;;5.40;91.30;;;;;;5076076;28;20226;-85
2023/12/22 00:53:28;;;;;;;3.40;3.10;;;5.40;91.30;;;;;;5086416;28;20263;-85
2023/12/22 00:55:57;;;;;;;5.27;3.90;;;5.30;91.60;;;;;;5080307;28;20210;-85
2023/12/22 00:58:27;;;;;;;6.83;6.13;;;5.30;91.70;;;;;;5071767;28;20204;-84
2023/12/22 01:00:56;;;;;;;6.37;3.93;;;5.30;91.80;;;;;;5083007;28;20198;-86
2023/12/22 01:03:24;;;;;;;4.93;4.43;;;5.30;92.00;;;;;;5070186;28;20234;-85
2023/12/22 01:05:53;;;;;;;5.30;4.47;;;5.30;91.90;;;;;;5067908;28;20290;-84
2023/12/22 01:08:22;;;;;;;5.37;2.87;;;5.30;92.10;;;;;;5078253;28;20198;-86
2023/12/22 01:10:51;;;;;;;5.47;4.00;;;5.20;92.30;;;;;;5075704;28;20227;-85
2023/12/22 01:13:20;;;;;;;3.87;3.27;;;5.20;92.20;;;;;;5061915;28;20191;-88
2023/12/22 01:15:50;;;;;;;3.97;3.57;;;5.20;92.10;;;;;;5071066;28;20209;-85
2023/12/22 01:18:19;;;;;;;4.90;3.87;;;5.20;92.20;;;;;;5072974;28;20232;-86
2023/12/22 01:20:49;;;;;;;5.87;4.33;;;5.20;92.30;;;;;;5065699;28;20259;-86
2023/12/22 01:23:17;;;;;;;5.13;4.63;;;5.10;92.50;;;;;;5073827;28;20198;-85
2023/12/22 01:25:46;;;;;;;3.70;2.90;;;5.10;92.60;;;;;;5072404;28;20202;-85
2023/12/22 01:28:14;;;;;;;2.20;1.97;;;5.10;92.50;;;;;;5071938;28;20194;-85
2023/12/22 01:30:43;;;;;;;1.97;1.87;;;5.10;92.60;;;;;;5069641;28;20225;-83
2023/12/22 01:33:13;;;;;;;3.03;2.83;;;5.10;92.50;;;;;;5073261;28;20217;-83
2023/12/22 01:35:42;;;;;;;2.63;2.43;;;5.10;92.70;;;;;;5066544;28;20190;-85
2023/12/22 01:38:11;;;;;;;5.30;4.80;;;5.20;92.60;;;;;;5077066;28;20213;-85
2023/12/22 01:40:39;;;;;;;5.53;3.07;;;5.10;92.70;;;;;;5072612;28;20599;-83
2023/12/22 01:43:08;;;;;;;3.77;3.47;;;5.10;92.70;;;;;;5078322;28;20206;-84
2023/12/22 01:45:37;;;;;;;3.07;2.80;;;5.10;92.70;;;;;;5069658;28;20223;-84
2023/12/22 01:48:06;;;;;;;3.33;3.03;;;5.10;92.90;;;;;;5071644;28;20205;-83
2023/12/22 01:50:36;;;;;;;2.60;2.43;;;5.10;92.80;;;;;;5070598;28;20616;-83
2023/12/22 01:53:05;;;;;;;6.40;5.37;;;5.10;93.00;;;;;;5070532;28;20231;-83
2023/12/22 01:55:34;;;;;;;2.13;2.03;;;5.10;93.00;;;;;;5070828;28;20212;-84
2023/12/22 01:58:03;;;;;;;3.07;2.23;;;5.10;93.00;;;;;;5074061;28;20202;-83
2023/12/22 02:00:31;;;;;;;1.77;1.67;;;5.10;93.10;;;;;;5072391;28;20234;-83
2023/12/22 02:03:00;;;;;;;2.03;1.93;;;5.10;93.00;;;;;;5072662;28;20225;-83
2023/12/22 02:05:30;;;;;;;4.10;2.63;;;5.10;93.00;;;;;;5081450;28;20250;-83
2023/12/22 02:08:01;;;;;;;2.30;2.00;;;5.10;93.00;;;;;;5079402;28;20249;-83
2023/12/22 02:10:30;;;;;;;3.77;3.47;;;5.10;93.00;;;;;;5054812;28;20195;-83
2023/12/22 02:12:59;;;;;;;6.67;2.53;;;5.10;92.90;;;;;;5071688;28;20276;-82
2023/12/22 02:15:27;;;;;;;6.07;4.77;;;5.20;92.90;;;;;;5071610;28;20202;-82
2023/12/22 02:18:02;;;;;;;4.70;3.03;;;5.10;93.00;;;;;;5072109;28;20597;-82
2023/12/22 02:20:34;;;;;;;3.23;2.97;;;5.10;92.90;;;;;;5072358;28;20675;-83
2023/12/22 02:23:04;;;;;;;6.33;3.93;;;5.20;92.80;;;;;;5072970;28;20199;-83
2023/12/22 02:25:34;;;;;;;4.63;2.77;;;5.10;92.80;;;;;;5077524;28;20192;-83
2023/12/22 02:28:10;;;;;;;3.53;3.27;;;5.10;92.80;;;;;;5076347;28;20281;-83
2023/12/22 02:30:47;;;;;;;6.13;2.50;;;5.10;92.80;;;;;;5073220;28;20201;-83
2023/12/22 02:33:17;;;;;;;4.43;2.60;;;5.10;92.70;;;;;;5075424;28;20599;-83
2023/12/22 02:35:49;;;;;;;2.00;1.67;;;5.20;92.80;;;;;;5068305;28;20234;-87
2023/12/22 02:38:23;;;;;;;4.20;3.67;;;5.10;92.80;;;;;;5074014;28;20214;-84
2023/12/22 02:40:54;;;;;;;2.30;2.10;;;5.10;93.00;;;;;;5080717;28;20200;-84
2023/12/22 02:43:24;;;;;;;4.17;3.83;;;5.00;93.00;;;;;;5070598;28;20202;-89
2023/12/22 02:45:53;;;;;;;3.93;3.17;;;5.00;93.10;;;;;;5080306;28;20223;-91
2023/12/22 02:48:22;;;;;;;3.30;3.03;;;5.00;93.10;;;;;;5075257;28;20212;-85
2023/12/22 02:50:51;;;;;;;4.20;3.73;;;4.90;93.20;;;;;;5081768;28;20257;-88
2023/12/22 02:53:21;;;;;;;4.13;3.73;;;4.90;93.30;;;;;;5078368;28;20222;-87
2023/12/22 02:55:50;;;;;;;5.73;2.70;;;4.90;93.30;;;;;;5080288;28;20205;-87
2023/12/22 02:58:18;;;;;;;4.10;3.60;;;4.90;93.40;;;;;;5085274;28;20567;-85
2023/12/22 03:00:52;;;;;;;12.67;4.87;;;4.90;93.40;;;;;;5079715;28;20611;-85
2023/12/22 03:03:21;;;;;;;7.83;5.07;;;4.80;93.60;;;;;;5073377;28;20215;-87
2023/12/22 03:05:50;;;;;;;5.40;3.67;;;4.80;94.00;;;;;;5077009;28;20204;-86
2023/12/22 03:08:20;;;;;;;7.20;5.57;;;4.70;93.70;;;;;;5078558;28;20194;-86
2023/12/22 03:10:48;;;;;;;2.83;2.63;;;4.70;93.80;;;;;;5080002;28;20202;-85
2023/12/22 03:13:17;;;;;;;2.37;2.27;;;4.70;93.80;;;;;;5073476;28;20227;-86
2023/12/22 03:15:47;;;;;;;6.63;2.63;;;4.70;93.90;;;;;;5080732;28;20206;-84
2023/12/22 03:18:15;;;;;;;6.83;3.87;;;4.70;93.90;;;;;;5076396;28;20200;-82
2023/12/22 03:20:44;;;;;;;13.03;4.40;;;4.70;94.00;;;;;;5075796;28;20237;-84
2023/12/22 03:23:13;;;;;;;14.17;5.07;;;4.70;94.10;;;;;;5075598;28;20195;-83
2023/12/22 03:25:43;;;;;;;6.67;4.77;;;4.70;94.10;;;;;;5076272;28;20654;-83
2023/12/22 03:28:12;;;;;;;5.30;3.07;;;4.70;94.00;;;;;;5086797;28;20266;-83
2023/12/22 03:30:41;;;;;;;3.50;2.53;;;4.70;94.00;;;;;;5073763;28;20662;-85
2023/12/22 03:33:09;;;;;;;2.83;2.30;;;4.70;94.00;;;;;;5081420;28;20220;-85
2023/12/22 03:35:40;;;;;;;3.63;3.37;;;4.70;94.00;;;;;;5073827;28;20208;-85
2023/12/22 03:38:09;;;;;;;5.33;4.43;;;4.70;94.00;;;;;;5073152;28;20650;-86
2023/12/22 03:40:38;;;;;;;3.67;2.87;;;4.70;94.40;;;;;;4967529;28;20269;-85
2023/12/22 03:43:08;;;;;;;4.30;3.20;;;4.70;94.00;;;;;;5002178;28;20721;-84
2023/12/22 03:45:36;;;;;;;3.20;2.60;;;4.70;94.00;;;;;;4995807;28;20205;-87
2023/12/22 03:48:06;;;;;;;4.90;1.83;;;4.80;94.00;;;;;;4995991;28;20292;-84
2023/12/22 03:50:42;;;;;;;2.57;2.47;;;4.70;93.90;;;;;;5004442;28;20198;-84
2023/12/22 03:53:11;;;;;;;8.27;3.10;;;4.70;93.90;;;;;;4988204;28;20226;-83
2023/12/22 03:55:40;;;;;;;7.17;4.63;;;4.70;93.90;;;;;;4996352;28;20287;-84
2023/12/22 03:58:10;;;;;;;5.93;3.93;;;4.70;93.90;;;;;;4998707;28;20201;-83
2023/12/22 04:00:39;;;;;;;4.03;3.70;;;4.70;93.90;;;;;;4996224;28;20227;-84
2023/12/22 04:03:08;;;;;;;3.83;3.47;;;4.80;93.90;;;;;;4996002;28;20799;-84
2023/12/22 04:05:37;;;;;;;1.40;1.33;;;4.80;93.80;;;;;;4997054;28;20649;-84
2023/12/22 04:08:06;;;;;;;5.23;3.70;;;4.80;93.80;;;;;;4995929;28;20190;-85
2023/12/22 04:10:35;;;;;;;3.83;3.00;;;4.90;93.80;;;;;;4994007;28;20293;-83
2023/12/22 04:13:04;;;;;;;6.07;3.90;;;4.90;93.70;;;;;;4996202;28;20220;-85
2023/12/22 04:15:34;;;;;;;5.27;3.73;;;4.90;93.70;;;;;;4996369;28;20197;-82
2023/12/22 04:18:03;;;;;;;2.07;1.70;;;4.90;93.70;;;;;;4997875;28;20193;-83
2023/12/22 04:20:32;;;;;;;11.53;4.77;;;4.90;93.60;;;;;;4996407;28;20284;-83
2023/12/22 04:23:00;;;;;;;5.80;3.03;;;4.90;93.70;;;;;;4995075;28;20517;-83
2023/12/22 04:25:29;;;;;;;2.60;2.40;;;4.90;93.60;;;;;;4990785;28;20232;-84
2023/12/22 04:27:58;;;;;;;2.53;2.43;;;4.90;94.00;;;;;;4995925;28;20208;-83
2023/12/22 04:30:27;;;;;;;4.63;4.20;;;5.00;93.60;;;;;;4994927;28;20572;-83
2023/12/22 04:33:01;;;;;;;4.03;3.67;;;4.90;93.50;;;;;;4996530;28;20692;-83
2023/12/22 04:35:30;;;;;;;3.20;2.37;;;4.90;93.60;;;;;;4993862;28;20208;-83
2023/12/22 04:37:58;;;;;;;3.40;3.07;;;4.90;93.70;;;;;;4994835;28;20284;-86
2023/12/22 04:40:28;;;;;;;4.60;3.60;;;4.90;93.70;;;;;;4993230;28;20207;-85
2023/12/22 04:42:56;;;;;;;4.20;3.80;;;4.90;93.70;;;;;;4995102;28;20570;-83
2023/12/22 04:45:25;;;;;;;7.70;4.90;;;4.90;93.70;;;;;;4998881;28;20641;-84
2023/12/22 04:47:53;;;;;;;5.97;5.33;;;4.90;93.80;;;;;;4994348;28;20216;-84
2023/12/22 04:50:24;;;;;;;6.33;4.53;;;4.90;93.80;;;;;;4998872;28;20197;-83
2023/12/22 04:52:52;;;;;;;3.07;2.87;;;4.90;93.80;;;;;;4999489;28;20231;-87
2023/12/22 04:55:22;;;;;;;4.50;3.97;;;4.90;93.80;;;;;;4989551;28;20676;-85
2023/12/22 04:57:50;;;;;;;4.53;4.23;;;4.90;93.90;;;;;;4994810;28;20581;-85
2023/12/22 05:00:19;;;;;;;4.40;4.00;;;4.90;93.90;;;;;;4992948;28;20294;-84
2023/12/22 05:02:48;;;;;;;7.43;3.73;;;4.90;93.90;;;;;;4994177;28;20240;-84
2023/12/22 05:05:17;;;;;;;2.13;1.90;;;4.90;94.00;;;;;;4992600;28;20581;-83
2023/12/22 05:07:47;;;;;;;3.00;2.70;;;4.90;94.00;;;;;;4993115;28;20321;-83
2023/12/22 05:10:15;;;;;;;3.70;3.03;;;4.90;94.00;;;;;;4990089;28;20220;-83
2023/12/22 05:12:44;;;;;;;3.30;3.00;;;4.90;93.90;;;;;;4990655;28;20216;-83
2023/12/22 05:15:13;;;;;;;2.57;2.37;;;4.90;93.90;;;;;;4997739;28;20201;-83
2023/12/22 05:17:41;;;;;;;3.50;3.03;;;4.90;93.90;;;;;;4985091;28;20243;-83
2023/12/22 05:20:11;;;;;;;4.40;2.53;;;4.90;94.20;;;;;;4988608;28;20266;-83
2023/12/22 05:22:39;;;;;;;5.30;3.30;;;4.90;93.90;;;;;;5000164;28;20270;-84
2023/12/22 05:25:10;;;;;;;3.40;2.97;;;4.90;93.90;;;;;;4995040;28;20197;-86
2023/12/22 05:27:39;;;;;;;3.33;3.03;;;4.90;94.00;;;;;;4990602;28;20197;-85
2023/12/22 05:30:08;;;;;;;3.63;3.10;;;4.90;94.00;;;;;;4993701;28;20453;-87
2023/12/22 05:32:40;;;;;;;3.17;2.97;;;4.90;93.80;;;;;;4990039;28;20200;-84
2023/12/22 05:35:10;;;;;;;4.67;3.43;;;4.90;93.80;;;;;;4988236;28;20680;-85
2023/12/22 05:37:38;;;;;;;2.43;2.23;;;5.00;93.90;;;;;;4992373;28;20264;-83
2023/12/22 05:40:11;;;;;;;3.77;3.43;;;5.00;93.80;;;;;;4993159;28;20229;-83
2023/12/22 05:42:40;;;;;;;5.73;2.20;;;5.00;93.80;;;;;;4992810;28;20234;-86
2023/12/22 05:45:11;;;;;;;3.60;3.27;;;5.10;93.80;;;;;;4992831;28;20570;-83
2023/12/22 05:47:39;;;;;;;2.07;1.97;;;5.10;93.80;;;;;;5000084;28;20262;-85
2023/12/22 05:50:10;;;;;;;5.60;5.03;;;5.10;93.70;;;;;;4996059;28;20224;-85
2023/12/22 05:52:39;;;;;;;2.97;2.70;;;5.20;93.70;;;;;;4996042;28;20231;-86
2023/12/22 05:55:10;;;;;;;3.17;2.93;;;5.20;93.60;;;;;;4994214;28;20203;-86
2023/12/22 05:57:39;;;;;;;3.67;3.17;;;5.20;93.50;;;;;;4999748;28;20203;-85
2023/12/22 06:00:11;;;;;;;2.50;1.93;;;5.20;93.40;;;;;;4998003;28;20766;-85
2023/12/22 06:02:39;;;;;;;4.07;3.03;;;5.30;93.40;;;;;;5000636;28;20211;-84
2023/12/22 06:05:09;;;;;;;3.73;3.23;;;5.30;93.40;;;;;;4992978;28;20227;-85
2023/12/22 06:07:37;;;;;;;3.67;1.53;;;5.30;93.30;;;;;;4999020;28;20233;-86
2023/12/22 06:10:09;;;;;;;3.53;3.23;;;5.30;93.30;;;;;;4996392;28;20201;-85
2023/12/22 06:12:39;;;;;;;6.23;3.00;;;5.40;93.20;;;;;;5001595;28;20213;-82
2023/12/22 06:15:08;;;;;;;2.83;2.50;;;5.40;93.10;;;;;;4991922;28;20215;-83
2023/12/22 06:17:37;;;;;;;5.20;2.57;;;5.30;93.10;;;;;;4999550;28;20267;-85
2023/12/22 06:20:09;;;;;;;1.37;1.27;;;5.40;93.10;;;;;;4998877;28;20193;-85
2023/12/22 06:22:38;;;;;;;7.03;3.37;;;5.40;93.10;;;;;;5002553;28;20292;-82
2023/12/22 06:25:09;;;;;;;3.33;2.90;;;5.40;93.00;;;;;;4997701;28;20201;-83
2023/12/22 06:27:39;;;;;;;3.33;3.13;;;5.40;92.90;;;;;;5009597;28;20202;-86
2023/12/22 06:30:09;;;;;;;4.60;3.73;;;5.50;92.90;;;;;;5006845;28;20219;-85
2023/12/22 06:32:39;;;;;;;3.03;2.83;;;5.40;92.80;;;;;;5001834;28;20210;-89
2023/12/22 06:35:11;;;;;;;2.37;2.10;;;5.50;92.90;;;;;;4998161;28;20228;-85
2023/12/22 06:37:44;;;;;;;2.57;2.37;;;5.60;92.80;;;;;;4997966;28;20211;-83
2023/12/22 06:40:13;;;;;;;3.00;2.67;;;5.60;92.70;;;;;;5006340;28;20249;-87
2023/12/22 06:42:43;;;;;;;2.80;2.27;;;5.70;92.70;;;;;;4996786;28;20213;-86
2023/12/22 06:45:13;;;;;;;1.53;1.33;;;5.70;92.60;;;;;;4989849;28;20203;-87
2023/12/22 06:47:41;;;;;;;3.10;2.27;;;5.80;92.50;;;;;;4997053;28;20220;-86
2023/12/22 06:50:10;;;;;;;1.57;1.47;;;5.80;92.30;;;;;;5001513;28;20208;-86
2023/12/22 06:52:39;;;;;;;6.67;2.10;;;5.80;92.30;;;;;;4997671;28;20605;-84
2023/12/22 06:57:45;;;;;;;3.40;2.23;;;5.90;92.10;;;;;;5046363;23;20247;-90
2023/12/22 07:00:16;;;;;;;4.77;3.53;;;5.90;92.00;;;;;;4964833;28;20405;-89
2023/12/22 07:02:44;;;;;;;4.43;2.33;;;6.00;92.00;;;;;;4963259;28;20237;-89
2023/12/22 07:05:36;;;;;;;7.20;2.63;;;6.00;92.00;;;;;;4963424;28;20201;-90
2023/12/22 07:08:07;;;;;;;2.03;1.90;;;6.10;92.00;;;;;;4958639;28;20213;-89
2023/12/22 07:10:35;;;;;;;2.10;1.87;;;6.10;91.90;;;;;;4962797;28;20191;-90
2023/12/22 07:13:06;;;;;;;2.03;1.87;;;6.20;91.90;;;;;;4959242;28;20210;-90
2023/12/22 07:15:35;;;;;;;2.00;1.90;;;6.20;91.90;;;;;;4962079;28;20576;-89
2023/12/22 07:18:04;;;;;;;2.00;1.90;;;6.30;91.80;;;;;;4961401;28;20209;-91
2023/12/22 07:20:33;;;;;;;1.90;1.80;;;6.30;91.70;;;;;;4954619;28;20198;-92
2023/12/22 07:23:02;;;;;;;1.53;1.43;;;6.40;91.70;;;;;;4973491;28;20204;-93
2023/12/22 07:25:35;;;;;;;2.20;2.00;;;6.50;91.70;;;;;;4966160;28;20666;-92
2023/12/22 07:28:07;;;;;;;2.20;1.77;;;6.50;91.50;;;;;;4962886;28;20216;-89
2023/12/22 07:30:36;;;;;;;2.97;2.07;;;6.60;91.50;;;;;;4961904;28;20202;-92
2023/12/22 07:33:05;;;;;;;2.37;2.17;;;6.60;91.30;;;;;;4963311;28;20513;-91
2023/12/22 07:35:34;;;;;;;9.77;3.23;;;6.70;91.20;;;;;;4960243;28;20237;-90
2023/12/22 07:38:03;;;;;;;1.73;1.37;;;6.80;91.10;;;;;;4959618;28;20198;-88
2023/12/22 07:40:33;;;;;;;3.90;2.07;;;6.80;90.90;;;;;;4959601;28;20222;-90
2023/12/22 07:43:03;;;;;;;2.83;2.63;;;6.80;90.50;;;;;;4959654;28;20214;-90
2023/12/22 07:45:34;;;;;;;3.23;2.10;;;6.90;90.50;;;;;;4966845;28;20213;-88
2023/12/22 07:48:03;;;;;;;1.73;1.63;;;6.90;90.50;;;;;;4966393;28;20611;-87
2023/12/22 07:50:38;;;;;;;4.47;3.60;;;7.00;90.50;;;;;;4963506;28;20202;-90
2023/12/22 07:53:11;;;;;;;2.63;2.20;;;7.00;90.50;;;;;;4962260;28;20202;-88
2023/12/22 07:55:40;;;;;;;3.00;2.77;;;7.00;90.40;;;;;;4956809;28;20226;-91
2023/12/22 07:58:09;;;;;;;2.67;1.93;;;7.10;90.30;;;;;;4960435;28;20211;-89
2023/12/22 08:00:39;;;;;;;3.40;2.17;;;7.10;90.30;;;;;;4960361;28;20210;-89
2023/12/22 08:03:09;;;;;;;1.73;1.63;;;7.10;90.00;;;;;;4960421;28;20222;-88
2023/12/22 08:05:38;;;;;;;3.63;3.17;;;7.10;89.40;;;;;;4963559;28;20221;-88
2023/12/22 08:08:07;;;;;;;4.73;3.20;;;7.10;89.30;;;;;;4956899;28;20237;-90
2023/12/22 08:10:36;;;;;;;2.20;2.00;;;7.20;89.10;;;;;;4954670;28;20620;-89
2023/12/22 08:13:05;;;;;;;4.00;2.30;;;7.20;89.00;;;;;;4951918;28;20217;-91
2023/12/22 08:15:35;;;;;;;2.17;2.00;;;7.30;89.40;;;;;;4965100;28;20269;-91
2023/12/22 08:18:08;;;;;;;1.60;1.50;;;7.40;89.40;;;;;;4961288;28;20215;-87
2023/12/22 08:20:38;;;;;;;6.90;3.30;;;7.50;89.10;;;;;;4965289;28;20205;-86
2023/12/22 08:23:12;;;;;;;1.63;1.53;;;7.50;88.80;;;;;;4957225;28;20198;-89
2023/12/22 08:25:42;;;;;;;2.53;2.17;;;7.70;89.30;;;;;;4958964;28;20203;-88
2023/12/22 08:28:12;;;;;;;2.07;1.63;;;7.70;89.10;;;;;;4959911;28;20198;-89
2023/12/22 08:30:42;;;;;;;2.30;1.63;;;7.70;88.70;;;;;;4957317;28;20206;-91
2023/12/22 08:33:15;;;;;;;2.37;1.47;;;7.80;88.40;;;;;;4972419;28;20198;-93
2023/12/22 08:35:44;;;;;;;1.73;1.20;;;7.80;88.40;;;;;;4959249;28;20218;-91
2023/12/22 08:38:15;;;;;;;1.13;1.10;;;7.80;87.70;;;;;;4960596;28;20221;-93
2023/12/22 08:40:48;;;;;;;2.40;2.17;;;7.90;87.20;;;;;;4961926;28;20240;-93
2023/12/22 08:43:18;;;;;;;5.33;3.00;;;7.90;87.20;;;;;;4964020;28;20209;-89
2023/12/22 08:45:47;;;;;;;1.27;1.27;;;7.90;86.60;;;;;;4962832;28;20221;-92
2023/12/22 08:48:18;;;;;;;3.73;2.27;;;8.00;86.20;;;;;;4960878;28;20182;-91
2023/12/22 08:50:47;;;;;;;1.50;1.40;;;8.00;85.90;;;;;;4960439;28;20253;-91
2023/12/22 08:53:16;;;;;;;2.33;2.13;;;8.00;85.60;;;;;;4960178;28;20199;-89
2023/12/22 08:55:45;;;;;;;1.90;1.70;;;8.00;85.60;;;;;;4957144;28;20305;-93
2023/12/22 08:58:14;;;;;;;1.90;1.80;;;8.00;85.10;;;;;;4958975;28;20697;-91
2023/12/22 09:00:43;;;;;;;2.90;1.60;;;8.10;85.20;;;;;;4960096;28;20217;-90
2023/12/22 09:03:12;;;;;;;2.43;1.73;;;8.10;84.90;;;;;;4960866;28;20297;-91
2023/12/22 09:05:54;;;;;;;1.40;1.30;;;8.00;84.80;;;;;;4965505;28;20297;-91
2023/12/22 09:08:22;;;;;;;1.63;1.53;;;8.10;85.60;;;;;;4957474;28;20202;-92
2023/12/22 09:10:51;;;;;;;2.63;1.73;;;8.20;85.80;;;;;;4957275;28;20210;-88
2023/12/22 09:13:20;;;;;;;3.60;2.93;;;8.30;85.70;;;;;;4961814;28;20600;-86
2023/12/22 09:15:49;;;;;;;2.43;2.23;;;8.40;85.80;;;;;;4966965;28;20252;-85
2023/12/22 09:18:17;;;;;;;2.50;2.30;;;8.40;84.80;;;;;;4960976;28;20205;-89
2023/12/22 09:20:48;;;;;;;3.60;1.53;;;8.50;85.00;;;;;;4961139;28;20260;-89
2023/12/22 09:23:17;;;;;;;1.13;1.13;;;8.50;85.10;;;;;;4955040;28;20205;-90
2023/12/22 09:25:46;;;;;;;7.03;1.43;;;8.60;85.40;;;;;;4960252;28;20292;-87
2023/12/22 09:28:14;;;;;;;2.40;1.37;;;8.60;84.70;;;;;;4958900;28;20201;-91
2023/12/22 09:30:43;;;;;;;0.80;0.80;;;8.60;84.60;;;;;;4957347;28;20214;-91
2023/12/22 09:33:12;;;;;;;2.30;1.50;;;8.60;84.50;;;;;;4959321;28;20237;-93
2023/12/22 09:35:42;;;;;;;1.27;1.17;;;8.80;85.00;;;;;;4953933;28;20222;-89
2023/12/22 09:38:13;;;;;;;2.22;1.70;;;8.80;85.00;;;;;;4955758;28;20853;-91
2023/12/22 09:40:42;;;;;;;1.13;1.10;;;8.90;84.80;;;;;;4956969;28;20210;-91
2023/12/22 09:43:14;;;;;;;3.77;3.00;;;8.90;83.80;;;;;;4956915;28;20241;-87
2023/12/22 09:45:43;;;;;;;2.00;1.63;;;9.00;84.70;;;;;;4954082;28;20265;-92
2023/12/22 09:48:17;;;;;;;3.00;2.00;;;9.00;84.50;;;;;;4958198;28;20671;-93
2023/12/22 09:50:46;;;;;;;1.60;1.00;;;9.10;84.30;;;;;;4954046;28;20190;-92
2023/12/22 09:53:18;;;;;;;2.40;1.67;;;9.10;84.40;;;;;;4959202;28;20261;-87
2023/12/22 09:55:48;;;;;;;7.30;2.57;;;9.20;84.00;;;;;;4957933;28;20226;-88
2023/12/22 09:58:17;;;;;;;1.73;1.63;;;9.20;84.40;;;;;;4957132;28;20202;-86
2023/12/22 10:00:47;;;;;;;5.27;3.00;;;9.30;84.10;;;;;;4955219;28;20276;-91
2023/12/22 10:03:17;;;;;;;2.33;2.13;;;9.30;84.60;;;;;;4957694;28;20213;-89
2023/12/22 10:05:47;;;;;;;1.43;1.33;;;9.40;84.30;;;;;;4958397;28;20722;-88
2023/12/22 10:08:20;;;;;;;7.03;2.83;;;9.50;84.30;;;;;;4956552;28;20669;-85
2023/12/22 10:10:52;;;;;;;3.20;2.20;;;9.50;83.70;;;;;;4957327;28;20257;-87
2023/12/22 10:13:21;;;;;;;1.60;1.50;;;9.60;83.80;;;;;;4955845;28;20210;-87
2023/12/22 10:15:51;;;;;;;1.20;1.10;;;9.60;83.80;;;;;;4961451;28;20222;-88
2023/12/22 10:18:20;;;;;;;1.67;1.57;;;9.70;83.70;;;;;;4960732;28;20245;-92
2023/12/22 10:20:49;;;;;;;2.37;2.17;;;9.80;84.30;;;;;;4959445;28;20391;-85
2023/12/22 10:23:19;;;;;;;2.97;2.40;;;9.90;83.20;;;;;;4963985;28;20200;-85
2023/12/22 10:25:49;;;;;;;2.03;1.77;;;9.90;83.10;;;;;;4957314;28;20237;-88
2023/12/22 10:28:21;;;;;;;5.60;1.63;;;9.90;82.50;;;;;;4962911;28;20203;-86
2023/12/22 10:30:51;;;;;;;1.87;1.77;;;10.10;83.20;;;;;;4959657;28;20209;-93
2023/12/22 10:33:20;;;;;;;2.50;2.30;;;10.10;82.80;;;;;;4964258;28;20197;-83
2023/12/22 10:35:50;;;;;;;2.20;1.90;;;10.10;82.00;;;;;;4962240;28;20741;-90
2023/12/22 10:38:22;;;;;;;3.15;2.55;;;10.20;82.30;;;;;;4959495;28;20448;-85
2023/12/22 10:40:51;;;;;;;0.87;0.83;;;10.40;82.50;;;;;;4960117;28;20221;-86
2023/12/22 10:43:20;;;;;;;1.57;1.47;;;10.50;81.90;;;;;;4968378;28;20230;-87
2023/12/22 10:45:49;;;;;;;4.13;2.20;;;10.50;81.30;;;;;;4958303;28;20206;-85
2023/12/22 10:48:18;;;;;;;3.20;1.30;;;10.50;80.60;;;;;;4956199;28;20205;-84
2023/12/22 10:50:48;;;;;;;7.40;2.33;;;10.50;80.80;;;;;;4956614;28;20206;-90
2023/12/22 10:53:17;;;;;;;3.33;1.87;;;10.40;80.60;;;;;;4959115;28;20217;-90
2023/12/22 10:55:50;;;;;;;1.80;1.67;;;10.50;81.00;;;;;;4958717;28;20226;-85
2023/12/22 10:58:20;;;;;;;4.90;2.67;;;10.50;81.00;;;;;;4964319;28;20233;-84
2023/12/22 11:00:52;;;;;;;2.10;1.90;;;10.50;80.80;;;;;;4967258;28;20202;-84
2023/12/22 11:03:25;;;;;;;2.23;2.03;;;10.50;80.50;;;;;;4966898;28;20202;-88
2023/12/22 11:05:59;;;;;;;6.20;2.77;;;10.50;80.50;;;;;;4975562;28;20225;-89
2023/12/22 11:08:29;;;;;;;2.93;2.70;;;10.50;80.50;;;;;;4964932;28;20213;-91
2023/12/22 11:11:06;;;;;;;1.87;1.40;;;10.40;79.70;;;;;;4964474;28;20206;-84
2023/12/22 11:13:37;;;;;;;5.17;3.27;;;10.40;80.30;;;;;;4960310;28;20608;-84
2023/12/22 11:16:07;;;;;;;1.80;1.70;;;10.40;80.40;;;;;;4967849;28;20269;-89
2023/12/22 11:18:38;;;;;;;2.17;1.57;;;10.30;80.30;;;;;;4968190;28;20218;-88
2023/12/22 11:21:09;;;;;;;4.27;3.47;;;10.30;80.30;;;;;;4961643;28;20515;-91
2023/12/22 11:23:39;;;;;;;3.43;2.30;;;10.20;80.40;;;;;;4964633;28;20198;-90
2023/12/22 11:26:14;;;;;;;6.20;2.30;;;10.20;80.50;;;;;;4964108;28;20221;-86
2023/12/22 11:28:46;;;;;;;3.80;2.93;;;10.20;80.80;;;;;;4963558;28;20205;-84
2023/12/22 11:31:15;;;;;;;6.47;3.10;;;10.20;81.00;;;;;;4958794;28;20202;-87
2023/12/22 11:33:47;;;;;;;2.97;2.70;;;10.20;81.00;;;;;;4966176;28;20253;-88
2023/12/22 11:36:32;;;;;;;1.47;1.37;;;10.10;81.00;;;;;;4955733;28;20226;-88
2023/12/22 11:39:01;;;;;;;3.90;3.13;;;10.10;81.20;;;;;;4960676;28;20202;-88
2023/12/22 11:41:36;;;;;;;4.27;2.37;;;10.10;81.10;;;;;;4967719;28;20293;-86
2023/12/22 11:44:07;;;;;;;1.73;1.63;;;10.20;81.40;;;;;;4966658;28;20202;-85
2023/12/22 11:46:37;;;;;;;3.00;2.03;;;10.20;81.30;;;;;;4962021;28;20249;-84
2023/12/22 11:49:08;;;;;;;2.67;2.47;;;10.10;81.00;;;;;;4956760;28;20209;-88
2023/12/22 11:51:38;;;;;;;2.97;1.47;;;10.20;80.90;;;;;;4966008;28;20217;-88
2023/12/22 11:54:37;;;;;;;6.63;2.77;;;10.10;82.00;;;;;;4970203;28;20254;-90
2023/12/22 11:57:07;;;;;;;2.17;1.97;;;10.20;81.60;;;;;;4963245;28;20244;-92
2023/12/22 11:59:36;;;;;;;10.17;3.07;;;10.10;81.50;;;;;;4961234;28;20202;-92
2023/12/22 12:02:09;;;;;;;1.47;1.37;;;10.10;81.90;;;;;;4958967;28;20354;-89
2023/12/22 12:04:38;;;;;;;1.50;1.40;;;10.10;82.10;;;;;;4962440;28;20214;-93
2023/12/22 12:07:40;;;;;;;7.20;3.20;;;10.10;82.60;;;;;;4960617;28;20343;-90
2023/12/22 12:10:09;;;;;;;1.13;1.10;;;10.10;82.70;;;;;;4961985;28;20210;-91
2023/12/22 12:12:39;;;;;;;4.40;3.00;;;10.10;83.10;;;;;;4961463;28;20234;-89
2023/12/22 12:15:18;;;;;;;2.53;2.33;;;10.20;83.30;;;;;;4964524;28;20203;-90
2023/12/22 12:17:46;;;;;;;4.90;3.73;;;10.10;83.50;;;;;;4962932;28;20284;-89
2023/12/22 12:20:17;;;;;;;2.80;1.83;;;10.20;83.50;;;;;;4962998;28;20183;-92
2023/12/22 12:22:47;;;;;;;2.03;1.93;;;10.30;83.90;;;;;;4964387;28;20293;-93
2023/12/22 12:25:16;;;;;;;2.00;1.83;;;10.30;83.90;;;;;;4964527;28;20198;-86
2023/12/22 12:28:04;;;;;;;2.67;1.87;;;10.30;83.80;;;;;;4960571;28;20202;-90
2023/12/22 12:30:34;;;;;;;4.00;2.33;;;10.30;84.00;;;;;;4958877;29;20233;-89
2023/12/22 12:33:08;;;;;;;2.63;2.30;;;10.40;84.00;;;;;;4960566;28;20253;-88
2023/12/22 12:35:41;;;;;;;2.37;2.27;;;10.40;83.90;;;;;;4962372;28;20809;-90
2023/12/22 12:38:18;;;;;;;1.60;1.47;;;10.40;84.20;;;;;;4961147;28;20253;-88
2023/12/22 12:40:52;;;;;;;2.30;2.10;;;10.40;84.10;;;;;;4960691;28;20206;-88
2023/12/22 12:43:22;;;;;;;2.30;2.10;;;10.40;84.10;;;;;;4956567;28;20195;-86
2023/12/22 12:45:53;;;;;;;4.77;2.30;;;10.50;83.90;;;;;;4958749;28;20234;-87
2023/12/22 12:48:23;;;;;;;2.57;2.33;;;10.50;83.60;;;;;;4957239;28;20289;-87
2023/12/22 12:50:51;;;;;;;2.23;2.03;;;10.50;83.20;;;;;;4964106;28;20202;-88
2023/12/22 12:53:20;;;;;;;3.30;1.83;;;10.40;83.80;;;;;;4958013;28;20206;-89
2023/12/22 12:55:49;;;;;;;2.17;1.97;;;10.50;83.60;;;;;;4967792;28;20203;-92
2023/12/22 12:58:18;;;;;;;5.40;1.93;;;10.50;83.60;;;;;;4961299;28;20640;-84
2023/12/22 13:00:49;;;;;;;2.40;2.20;;;10.40;83.50;;;;;;4959321;28;20556;-91
2023/12/22 13:03:18;;;;;;;0.97;0.90;;;10.40;84.30;;;;;;4958273;28;20261;-90
2023/12/22 13:05:47;;;;;;;2.23;1.70;;;10.40;83.80;;;;;;4962759;28;20214;-91
2023/12/22 13:08:16;;;;;;;6.73;1.70;;;10.40;83.80;;;;;;4960204;28;20253;-91
2023/12/22 13:10:45;;;;;;;1.83;1.30;;;10.50;83.90;;;;;;4966477;28;20186;-89
2023/12/22 13:13:14;;;;;;;3.27;1.33;;;10.50;83.90;;;;;;4959811;28;20257;-85